Time;durP1;ratioP1;P1;durP2;ratioP2;P2;SDS_P1;SDS_P2;PMS_P1;PMS_P2;Temp;Humidity;BMP_temperature;BMP_pressure;BME280_temperature;BME280_humidity;BME280_pressure;Samples;Min_cycle;Max_cycle;Signal;HPM_P1;HPM_P2
2023/12/22 00:01:16;;;;;;;0.63;0.20;;;13.80;50.40;;;;;;7399415;19;19925;-74
2023/12/22 00:03:43;;;;;;;1.60;0.30;;;14.00;47.90;;;;;;7403897;19;19914;-71
2023/12/22 00:06:08;;;;;;;1.13;0.30;;;14.00;47.20;;;;;;7401512;19;19930;-72
2023/12/22 00:08:34;;;;;;;1.13;0.40;;;14.10;47.20;;;;;;7403241;19;19910;-77
2023/12/22 00:11:00;;;;;;;1.95;0.40;;;14.10;48.10;;;;;;7378097;19;19919;-72
2023/12/22 00:13:26;;;;;;;1.20;0.30;;;14.10;46.80;;;;;;7400701;19;19935;-74
2023/12/22 00:15:51;;;;;;;2.05;0.50;;;14.30;43.70;;;;;;7399084;19;19967;-72
2023/12/22 00:18:17;;;;;;;0.90;0.30;;;14.40;41.80;;;;;;7400125;19;19925;-74
2023/12/22 00:20:43;;;;;;;0.98;0.22;;;14.30;43.50;;;;;;7400669;19;19922;-72
2023/12/22 00:23:09;;;;;;;1.05;0.20;;;14.40;42.70;;;;;;7398006;19;19933;-73
2023/12/22 00:25:34;;;;;;;2.17;0.40;;;14.50;39.70;;;;;;7401199;19;20339;-72
2023/12/22 00:28:00;;;;;;;1.10;0.30;;;14.50;39.20;;;;;;7401369;19;19918;-73
2023/12/22 00:30:26;;;;;;;0.75;0.20;;;14.40;41.20;;;;;;7396575;19;19922;-72
2023/12/22 00:32:51;;;;;;;0.85;0.28;;;14.20;43.50;;;;;;7396809;19;19942;-73
2023/12/22 00:35:17;;;;;;;1.55;0.32;;;14.10;45.00;;;;;;7402288;19;19926;-74
2023/12/22 00:37:43;;;;;;;2.08;0.22;;;14.00;45.90;;;;;;7399234;19;19918;-72
2023/12/22 00:40:09;;;;;;;1.05;0.40;;;13.90;47.10;;;;;;7396664;19;19917;-72
2023/12/22 00:42:35;;;;;;;1.00;0.32;;;13.80;47.60;;;;;;7403574;19;19914;-73
2023/12/22 00:45:01;;;;;;;0.77;0.30;;;13.80;47.70;;;;;;7402038;19;19942;-73
2023/12/22 00:47:28;;;;;;;1.00;0.30;;;13.80;47.90;;;;;;7398178;19;19930;-73
2023/12/22 00:49:54;;;;;;;1.08;0.40;;;13.70;48.70;;;;;;7403563;19;20298;-73
2023/12/22 00:52:20;;;;;;;1.10;0.30;;;13.60;49.30;;;;;;7397668;19;19986;-72
2023/12/22 00:54:45;;;;;;;2.28;0.32;;;13.70;49.60;;;;;;7395468;19;19918;-73
2023/12/22 00:57:12;;;;;;;1.05;0.35;;;13.60;49.50;;;;;;7374623;19;19957;-73
2023/12/22 00:59:38;;;;;;;0.93;0.30;;;13.60;49.90;;;;;;7396579;19;19915;-72
2023/12/22 01:02:04;;;;;;;1.55;0.43;;;13.60;50.60;;;;;;7396914;19;19914;-72
2023/12/22 01:04:29;;;;;;;1.05;0.28;;;13.50;50.60;;;;;;7400277;19;19922;-73
2023/12/22 01:06:55;;;;;;;1.60;0.40;;;13.50;51.00;;;;;;7397495;19;20325;-72
2023/12/22 01:09:21;;;;;;;1.20;0.30;;;13.50;50.90;;;;;;7400623;19;19943;-73
2023/12/22 01:11:48;;;;;;;1.05;0.25;;;13.60;49.60;;;;;;7400539;19;19926;-73
2023/12/22 01:14:14;;;;;;;1.30;0.30;;;13.50;49.20;;;;;;7399713;19;19922;-73
2023/12/22 01:16:40;;;;;;;1.35;0.43;;;13.50;49.20;;;;;;7400305;19;20289;-73
2023/12/22 01:19:05;;;;;;;1.55;0.60;;;13.50;49.00;;;;;;7400574;19;20275;-73
2023/12/22 01:21:31;;;;;;;1.38;0.30;;;13.50;49.00;;;;;;7398554;19;19919;-73
2023/12/22 01:23:58;;;;;;;1.58;0.50;;;13.50;47.90;;;;;;7397394;19;19922;-72
2023/12/22 01:26:24;;;;;;;0.95;0.20;;;13.50;48.10;;;;;;7400256;19;19998;-73
2023/12/22 01:28:50;;;;;;;0.75;0.40;;;13.50;47.60;;;;;;7399777;19;19977;-72
2023/12/22 01:31:16;;;;;;;1.10;0.30;;;13.50;47.20;;;;;;7400023;19;19931;-73
2023/12/22 01:33:42;;;;;;;2.63;0.22;;;13.50;47.40;;;;;;7400009;19;20009;-72
2023/12/22 01:36:08;;;;;;;1.45;0.30;;;13.40;48.20;;;;;;7397110;19;19915;-73
2023/12/22 01:38:34;;;;;;;1.42;0.20;;;13.40;48.30;;;;;;7399648;19;19922;-72
2023/12/22 01:40:59;;;;;;;2.20;0.28;;;13.40;47.20;;;;;;7399499;19;19923;-72
2023/12/22 01:43:25;;;;;;;0.68;0.30;;;13.50;47.20;;;;;;7400079;19;19914;-73
2023/12/22 01:45:56;;;;;;;4.93;0.52;;;13.40;47.40;;;;;;7402685;19;19917;-72
2023/12/22 01:48:24;;;;;;;1.02;0.32;;;13.40;47.10;;;;;;7399857;19;20594;-73
2023/12/22 01:50:52;;;;;;;2.05;0.30;;;13.50;46.40;;;;;;7402080;19;19922;-72
2023/12/22 01:53:19;;;;;;;0.57;0.20;;;13.50;45.90;;;;;;7400820;19;19922;-72
2023/12/22 01:55:50;;;;;;;1.88;0.30;;;13.40;46.10;;;;;;7400153;19;19918;-73
2023/12/22 01:58:18;;;;;;;2.20;0.43;;;13.40;45.80;;;;;;7401692;19;19922;-73
2023/12/22 02:00:44;;;;;;;1.35;0.17;;;13.40;45.70;;;;;;7399277;19;19915;-73
2023/12/22 02:03:10;;;;;;;1.55;0.40;;;13.40;46.00;;;;;;7399070;19;20278;-73
2023/12/22 02:05:36;;;;;;;1.17;0.22;;;13.30;46.80;;;;;;7399387;19;19923;-73
2023/12/22 02:08:02;;;;;;;3.83;0.40;;;13.30;47.20;;;;;;7400922;19;19938;-73
2023/12/22 02:10:29;;;;;;;1.65;0.30;;;13.30;46.80;;;;;;7401750;19;20389;-72
2023/12/22 02:12:55;;;;;;;2.00;0.50;;;13.30;46.80;;;;;;7400396;19;19926;-73
2023/12/22 02:15:21;;;;;;;1.23;0.30;;;13.20;47.10;;;;;;7397317;19;19998;-72
2023/12/22 02:18:23;;;;;;;1.92;0.22;;;13.00;48.00;;;;;;7397845;19;19970;-73
2023/12/22 02:20:49;;;;;;;1.30;0.38;;;13.00;48.40;;;;;;7398142;19;19929;-73
2023/12/22 02:23:15;;;;;;;2.13;0.40;;;13.00;48.90;;;;;;7377083;19;19919;-72
2023/12/22 02:25:41;;;;;;;1.02;0.35;;;13.00;49.50;;;;;;7399409;19;19915;-73
2023/12/22 02:28:17;;;;;;;1.10;0.32;;;13.00;49.40;;;;;;7396200;19;19915;-72
2023/12/22 02:30:54;;;;;;;0.93;0.40;;;13.10;49.00;;;;;;7397830;19;19937;-73
2023/12/22 02:33:23;;;;;;;1.02;0.30;;;12.90;49.80;;;;;;7397574;19;19911;-72
2023/12/22 02:35:52;;;;;;;1.23;0.40;;;12.90;50.60;;;;;;7398781;19;20028;-73
2023/12/22 02:38:19;;;;;;;1.38;0.40;;;13.00;50.80;;;;;;7396277;19;20335;-73
2023/12/22 02:40:45;;;;;;;1.38;0.68;;;12.90;50.80;;;;;;7401027;19;19910;-73
2023/12/22 02:43:11;;;;;;;0.90;0.45;;;13.00;49.40;;;;;;7394724;19;19923;-73
2023/12/22 02:45:37;;;;;;;1.88;0.60;;;13.00;49.30;;;;;;7397358;19;20337;-71
2023/12/22 02:48:03;;;;;;;0.95;0.40;;;12.90;49.80;;;;;;7396029;19;20345;-73
2023/12/22 02:50:29;;;;;;;1.15;0.47;;;12.80;50.70;;;;;;7398273;19;20265;-72
2023/12/22 02:52:55;;;;;;;1.15;0.32;;;12.70;51.40;;;;;;7394635;19;19929;-73
2023/12/22 02:55:20;;;;;;;1.08;0.30;;;12.80;51.90;;;;;;7396848;19;19945;-72
2023/12/22 02:57:46;;;;;;;1.25;0.43;;;12.70;52.30;;;;;;7399018;19;19918;-72
2023/12/22 03:00:12;;;;;;;1.88;0.68;;;12.60;53.10;;;;;;7395711;19;20137;-73
2023/12/22 03:02:38;;;;;;;1.92;0.40;;;12.50;53.80;;;;;;7398212;19;20256;-72
2023/12/22 03:05:05;;;;;;;1.50;0.25;;;12.40;55.20;;;;;;7396953;19;19939;-73
2023/12/22 03:07:30;;;;;;;1.17;0.40;;;12.30;56.50;;;;;;7395368;19;19915;-74
2023/12/22 03:09:56;;;;;;;2.20;0.95;;;12.40;57.30;;;;;;7396677;19;19929;-72
2023/12/22 03:12:22;;;;;;;2.03;0.57;;;12.30;57.40;;;;;;7394946;19;19949;-73
2023/12/22 03:14:48;;;;;;;2.20;0.52;;;12.30;57.70;;;;;;7398268;19;20434;-72
2023/12/22 03:17:14;;;;;;;3.88;0.55;;;12.20;58.80;;;;;;7395523;19;20516;-73
2023/12/22 03:19:40;;;;;;;2.30;0.98;;;12.20;59.20;;;;;;7396100;19;19927;-74
2023/12/22 03:22:07;;;;;;;3.28;0.50;;;12.20;59.70;;;;;;7395239;19;20342;-72
2023/12/22 03:24:33;;;;;;;2.58;0.50;;;12.00;59.90;;;;;;7397931;19;20403;-73
2023/12/22 03:26:59;;;;;;;2.15;0.60;;;12.00;61.20;;;;;;7397258;19;19915;-72
2023/12/22 03:29:25;;;;;;;2.15;0.50;;;12.00;61.40;;;;;;7402876;19;20447;-73
2023/12/22 03:31:50;;;;;;;1.00;0.60;;;12.10;60.50;;;;;;7403522;19;19918;-73
2023/12/22 03:34:16;;;;;;;0.95;0.30;;;12.00;60.40;;;;;;7403339;19;20658;-73
2023/12/22 03:36:42;;;;;;;1.80;0.40;;;12.00;60.10;;;;;;7403017;19;19922;-74
2023/12/22 03:39:08;;;;;;;1.40;0.65;;;12.30;58.90;;;;;;7403035;19;20253;-72
2023/12/22 03:41:34;;;;;;;2.08;0.40;;;12.30;57.80;;;;;;7401529;19;19955;-74
2023/12/22 03:44:03;;;;;;;0.90;0.40;;;12.40;56.60;;;;;;7405557;19;19926;-74
2023/12/22 03:46:29;;;;;;;0.90;0.22;;;12.50;55.10;;;;;;7379579;19;19918;-73
2023/12/22 03:48:57;;;;;;;2.15;0.50;;;12.50;54.70;;;;;;7380193;19;19947;-74
2023/12/22 03:51:23;;;;;;;0.90;0.32;;;12.50;54.20;;;;;;7399247;19;19938;-73
2023/12/22 03:53:49;;;;;;;1.25;0.35;;;12.60;51.30;;;;;;7401008;19;20358;-72
2023/12/22 03:56:15;;;;;;;1.58;0.50;;;12.80;50.00;;;;;;7400636;19;19925;-73
2023/12/22 03:58:41;;;;;;;1.10;0.30;;;12.70;49.60;;;;;;7383162;19;19915;-73
2023/12/22 04:01:07;;;;;;;1.23;0.28;;;12.80;48.70;;;;;;7400553;19;19914;-73
2023/12/22 04:03:34;;;;;;;2.38;0.47;;;12.80;48.50;;;;;;7404635;19;20475;-73
2023/12/22 04:06:03;;;;;;;1.75;0.30;;;12.80;48.00;;;;;;7401631;19;20575;-74
2023/12/22 04:08:29;;;;;;;1.63;0.50;;;12.90;45.50;;;;;;7402634;19;20368;-73
2023/12/22 04:10:55;;;;;;;2.10;0.35;;;12.90;44.10;;;;;;7404531;19;19918;-73
2023/12/22 04:13:21;;;;;;;2.38;0.50;;;12.90;44.50;;;;;;7403147;19;19919;-73
2023/12/22 04:15:46;;;;;;;1.45;0.30;;;12.80;46.40;;;;;;7401694;19;19969;-72
2023/12/22 04:18:12;;;;;;;0.82;0.30;;;12.70;46.50;;;;;;7403285;19;19918;-74
2023/12/22 04:20:38;;;;;;;1.98;0.47;;;12.80;46.10;;;;;;7404364;19;19937;-73
2023/12/22 04:23:04;;;;;;;1.13;0.30;;;12.70;45.70;;;;;;7402592;19;20006;-73
2023/12/22 04:25:30;;;;;;;2.22;0.50;;;12.70;45.40;;;;;;7403593;19;19927;-72
2023/12/22 04:27:56;;;;;;;0.75;0.30;;;12.80;44.50;;;;;;7403432;19;19922;-73
2023/12/22 04:30:22;;;;;;;1.95;0.50;;;12.80;44.30;;;;;;7400290;19;22083;-73
2023/12/22 04:32:47;;;;;;;0.93;0.30;;;12.70;44.80;;;;;;7399599;19;19943;-72
2023/12/22 04:35:13;;;;;;;1.98;0.40;;;12.60;45.80;;;;;;7401324;19;20360;-73
2023/12/22 04:37:39;;;;;;;3.10;0.80;;;12.50;46.20;;;;;;7402095;19;19925;-73
2023/12/22 04:40:05;;;;;;;1.73;0.40;;;12.40;46.80;;;;;;7401194;19;20326;-73
2023/12/22 04:42:31;;;;;;;1.10;0.32;;;12.40;47.40;;;;;;7401507;19;20253;-73
2023/12/22 04:44:57;;;;;;;2.47;0.40;;;12.30;47.80;;;;;;7402907;19;19918;-72
2023/12/22 04:47:23;;;;;;;1.80;0.40;;;12.20;49.20;;;;;;7399528;19;19936;-73
2023/12/22 04:49:49;;;;;;;3.53;0.68;;;12.10;49.80;;;;;;7403554;19;19945;-73
2023/12/22 04:52:15;;;;;;;1.70;0.52;;;12.10;49.90;;;;;;7401058;19;19918;-73
2023/12/22 04:54:41;;;;;;;3.30;0.82;;;12.10;48.90;;;;;;7403855;19;19934;-73
2023/12/22 04:57:06;;;;;;;1.15;0.57;;;12.20;47.80;;;;;;7399087;19;19967;-74
2023/12/22 04:59:32;;;;;;;1.50;0.40;;;12.20;47.30;;;;;;7402227;19;19915;-72
2023/12/22 05:02:00;;;;;;;3.65;0.80;;;12.20;47.40;;;;;;7403851;19;19918;-73
2023/12/22 05:04:26;;;;;;;2.92;0.50;;;12.10;48.20;;;;;;7400306;19;19993;-72
2023/12/22 05:06:51;;;;;;;3.15;0.52;;;12.10;48.20;;;;;;7401118;19;20296;-72
2023/12/22 05:09:18;;;;;;;1.27;0.30;;;12.10;47.90;;;;;;7401753;19;19919;-74
2023/12/22 05:11:44;;;;;;;3.03;0.50;;;12.10;48.10;;;;;;7401444;19;19922;-72
2023/12/22 05:14:11;;;;;;;1.73;0.43;;;12.10;47.10;;;;;;7399324;19;20371;-73
2023/12/22 05:16:36;;;;;;;5.63;0.68;;;12.30;46.30;;;;;;7400438;19;19982;-72
2023/12/22 05:19:02;;;;;;;1.88;0.50;;;12.20;46.20;;;;;;7400765;19;20537;-73
2023/12/22 05:21:28;;;;;;;2.00;0.45;;;12.10;46.40;;;;;;7401000;19;19915;-73
2023/12/22 05:23:54;;;;;;;2.80;0.50;;;12.10;46.70;;;;;;7403057;19;19922;-73
2023/12/22 05:26:20;;;;;;;3.05;0.52;;;12.20;46.40;;;;;;7400587;19;20326;-73
2023/12/22 05:28:47;;;;;;;1.83;0.70;;;12.20;45.70;;;;;;7400087;19;19922;-72
2023/12/22 05:31:13;;;;;;;1.98;0.85;;;12.40;44.20;;;;;;7399936;19;20697;-72
2023/12/22 05:33:39;;;;;;;2.53;0.47;;;12.40;43.60;;;;;;7399982;19;19923;-73
2023/12/22 05:36:05;;;;;;;2.10;0.55;;;12.40;43.00;;;;;;7399782;19;20386;-73
2023/12/22 05:38:32;;;;;;;3.92;0.88;;;12.50;42.10;;;;;;7400496;19;19926;-73
2023/12/22 05:40:58;;;;;;;1.98;0.47;;;12.60;40.80;;;;;;7402387;19;19964;-73
2023/12/22 05:43:24;;;;;;;2.83;0.82;;;12.60;40.50;;;;;;7398432;19;19922;-73
2023/12/22 05:45:50;;;;;;;1.90;0.50;;;12.60;40.00;;;;;;7398770;19;19919;-73
2023/12/22 05:48:15;;;;;;;2.40;0.47;;;12.60;39.70;;;;;;7396959;19;20445;-72
2023/12/22 05:50:41;;;;;;;2.60;0.52;;;12.80;38.40;;;;;;7396840;19;19935;-74
2023/12/22 05:53:07;;;;;;;3.60;0.70;;;12.70;38.40;;;;;;7397896;19;19915;-73
2023/12/22 05:55:33;;;;;;;4.43;0.70;;;12.70;38.30;;;;;;7399208;19;19929;-73
2023/12/22 05:57:59;;;;;;;3.97;0.80;;;12.70;38.70;;;;;;7401350;19;19918;-72
2023/12/22 06:00:26;;;;;;;5.20;0.80;;;12.70;39.20;;;;;;7393914;19;19917;-73
2023/12/22 06:02:52;;;;;;;4.70;0.75;;;12.70;38.70;;;;;;7399356;19;20266;-72
2023/12/22 06:05:17;;;;;;;4.75;0.60;;;12.70;38.90;;;;;;7398290;19;19918;-73
2023/12/22 06:07:43;;;;;;;4.03;0.75;;;12.60;38.90;;;;;;7401247;19;19930;-73
2023/12/22 06:10:09;;;;;;;4.05;0.50;;;12.60;38.30;;;;;;7399490;19;20274;-74
2023/12/22 06:12:36;;;;;;;2.42;0.43;;;13.00;35.60;;;;;;7401474;19;19922;-73
2023/12/22 06:15:02;;;;;;;3.60;0.63;;;13.20;33.80;;;;;;7398698;19;19970;-73
2023/12/22 06:17:27;;;;;;;4.15;1.38;;;13.30;33.30;;;;;;7398501;19;20323;-73
2023/12/22 06:19:53;;;;;;;4.20;0.60;;;13.20;33.80;;;;;;7401483;19;19915;-73
2023/12/22 06:22:19;;;;;;;4.93;0.68;;;13.10;34.60;;;;;;7397660;19;19977;-73
2023/12/22 06:24:45;;;;;;;7.45;0.80;;;13.00;35.10;;;;;;7399417;19;19918;-72
2023/12/22 06:27:11;;;;;;;7.70;0.93;;;13.00;35.90;;;;;;7395813;19;19935;-73
2023/12/22 06:29:36;;;;;;;5.57;1.10;;;12.90;36.30;;;;;;7398874;19;19961;-74
2023/12/22 06:32:05;;;;;;;7.18;1.17;;;12.80;36.30;;;;;;7399189;19;20243;-73
2023/12/22 06:34:31;;;;;;;6.90;0.50;;;12.80;36.10;;;;;;7400487;19;19919;-73
2023/12/22 06:36:57;;;;;;;3.47;0.80;;;12.90;35.50;;;;;;7399870;19;20623;-73
2023/12/22 06:39:23;;;;;;;3.85;0.77;;;13.10;34.10;;;;;;7398981;19;19946;-72
2023/12/22 06:41:49;;;;;;;6.82;0.90;;;13.20;33.60;;;;;;7398723;19;19925;-73
2023/12/22 06:44:14;;;;;;;4.53;0.77;;;13.20;32.90;;;;;;7398889;19;19918;-73
2023/12/22 06:46:40;;;;;;;2.97;0.77;;;13.40;31.90;;;;;;7398818;19;19922;-73
2023/12/22 06:49:06;;;;;;;4.68;1.10;;;13.40;31.60;;;;;;7396358;19;19929;-72
2023/12/22 06:51:35;;;;;;;3.55;0.50;;;13.40;30.60;;;;;;7396606;19;19926;-73
2023/12/22 06:54:04;;;;;;;3.92;1.23;;;13.50;29.50;;;;;;7399537;19;19944;-73
2023/12/22 06:56:33;;;;;;;2.00;0.80;;;13.70;28.50;;;;;;7377048;19;19915;-72
2023/12/22 06:58:59;;;;;;;3.20;0.68;;;13.70;28.00;;;;;;7399535;19;19926;-74
2023/12/22 07:01:33;;;;;;;4.50;0.65;;;13.70;27.60;;;;;;7402143;19;19919;-73
2023/12/22 07:04:01;;;;;;;4.22;1.00;;;13.70;27.50;;;;;;7407892;19;19919;-72
2023/12/22 07:06:28;;;;;;;4.50;0.57;;;13.90;26.70;;;;;;7410099;19;20279;-73
2023/12/22 07:09:17;;;;;;;2.10;0.60;;;13.80;26.50;;;;;;7403212;19;20810;-74
2023/12/22 07:11:48;;;;;;;1.25;0.32;;;13.90;26.10;;;;;;7399284;19;19923;-74
2023/12/22 07:14:15;;;;;;;2.25;0.70;;;13.90;26.30;;;;;;7402588;19;19918;-72
2023/12/22 07:16:42;;;;;;;3.25;0.60;;;13.90;25.70;;;;;;7403498;19;20421;-73
2023/12/22 07:19:08;;;;;;;3.10;0.50;;;14.10;25.40;;;;;;7405429;19;19944;-73
2023/12/22 07:21:34;;;;;;;3.75;0.60;;;14.00;25.70;;;;;;7405590;19;19910;-74
2023/12/22 07:24:03;;;;;;;3.70;0.82;;;13.90;26.30;;;;;;7400134;19;19928;-73
2023/12/22 07:26:29;;;;;;;6.85;1.00;;;13.80;26.80;;;;;;7397970;19;19918;-74
2023/12/22 07:28:55;;;;;;;3.58;0.40;;;13.80;27.00;;;;;;7391587;19;19945;-72
2023/12/22 07:31:21;;;;;;;3.88;0.85;;;13.80;27.10;;;;;;7381119;19;20373;-73
2023/12/22 07:33:47;;;;;;;2.92;0.40;;;13.70;27.80;;;;;;7402107;19;19951;-74
2023/12/22 07:36:13;;;;;;;3.25;0.40;;;13.70;27.70;;;;;;7400121;19;19914;-73
2023/12/22 07:38:39;;;;;;;3.33;0.75;;;13.80;27.50;;;;;;7402373;19;19937;-73
2023/12/22 07:41:06;;;;;;;3.70;0.75;;;13.70;27.80;;;;;;7400978;19;19923;-73
2023/12/22 07:43:32;;;;;;;4.22;0.55;;;13.70;28.00;;;;;;7404933;19;20419;-73
2023/12/22 07:45:57;;;;;;;2.13;0.50;;;13.70;28.00;;;;;;7405042;19;19922;-74
2023/12/22 07:48:26;;;;;;;4.88;1.00;;;13.80;27.80;;;;;;7400962;19;19978;-74
2023/12/22 07:50:52;;;;;;;4.28;0.70;;;13.80;27.80;;;;;;7402334;19;19915;-74
2023/12/22 07:53:18;;;;;;;7.28;0.73;;;13.80;27.90;;;;;;7380027;19;19914;-75
2023/12/22 07:55:44;;;;;;;3.20;0.60;;;13.80;28.10;;;;;;7377477;19;19918;-74
2023/12/22 07:58:10;;;;;;;2.65;0.40;;;13.80;28.20;;;;;;7381071;19;19957;-74
2023/12/22 08:00:36;;;;;;;4.15;0.50;;;13.90;28.00;;;;;;7379053;19;19978;-74
2023/12/22 08:03:04;;;;;;;4.65;1.13;;;13.90;27.90;;;;;;7382876;19;19967;-74
2023/12/22 08:05:30;;;;;;;2.28;0.40;;;13.90;28.00;;;;;;7383717;19;19929;-74
2023/12/22 08:07:56;;;;;;;3.28;0.40;;;13.90;27.70;;;;;;7382649;19;19926;-74
2023/12/22 08:10:22;;;;;;;5.57;0.70;;;14.00;27.80;;;;;;7378718;19;19938;-75
2023/12/22 08:12:47;;;;;;;3.83;0.77;;;14.10;27.40;;;;;;7378762;19;19952;-74
2023/12/22 08:15:13;;;;;;;2.00;0.80;;;14.90;25.90;;;;;;7402354;19;20341;-75
2023/12/22 08:17:49;;;;;;;4.07;1.25;;;16.10;22.40;;;;;;7404837;19;19915;-75
2023/12/22 08:20:19;;;;;;;3.80;1.23;;;16.60;20.50;;;;;;7388796;19;19941;-74
2023/12/22 08:22:49;;;;;;;3.60;1.85;;;17.00;19.60;;;;;;7380157;19;20290;-75
2023/12/22 08:25:15;;;;;;;3.63;1.02;;;17.10;18.60;;;;;;7379275;19;19929;-74
2023/12/22 08:27:42;;;;;;;4.45;1.13;;;17.00;18.70;;;;;;7380666;19;19949;-75
2023/12/22 08:30:11;;;;;;;4.97;1.20;;;17.40;18.10;;;;;;7376154;19;19922;-73
2023/12/22 08:32:37;;;;;;;3.97;1.70;;;17.50;17.70;;;;;;7375119;19;20286;-73
2023/12/22 08:35:07;;;;;;;6.55;1.20;;;17.10;17.90;;;;;;7361704;19;19927;-72
2023/12/22 08:37:32;;;;;;;4.80;1.00;;;16.90;18.10;;;;;;7377821;19;19922;-73
2023/12/22 08:39:58;;;;;;;3.85;1.15;;;17.40;17.40;;;;;;7371862;19;19954;-74
2023/12/22 08:42:25;;;;;;;3.33;0.93;;;16.90;18.00;;;;;;7377149;19;19922;-73
2023/12/22 08:44:51;;;;;;;4.20;0.85;;;16.90;18.50;;;;;;7377112;19;19919;-73
2023/12/22 08:47:17;;;;;;;4.00;1.42;;;16.80;18.40;;;;;;7380328;19;20357;-72
2023/12/22 08:49:43;;;;;;;3.28;0.70;;;15.90;19.90;;;;;;7378464;19;19919;-72
2023/12/22 08:52:09;;;;;;;2.38;0.60;;;15.60;20.70;;;;;;7373790;19;19941;-73
2023/12/22 08:54:35;;;;;;;5.10;1.00;;;15.70;21.00;;;;;;7371609;19;19915;-72
2023/12/22 08:57:03;;;;;;;4.63;0.90;;;15.70;21.50;;;;;;7375529;19;19914;-73
2023/12/22 08:59:29;;;;;;;3.17;0.88;;;15.60;21.40;;;;;;7376855;19;19925;-72
2023/12/22 09:01:55;;;;;;;3.58;0.68;;;15.60;21.70;;;;;;7376337;19;19919;-75
2023/12/22 09:04:22;;;;;;;2.95;0.50;;;15.60;21.60;;;;;;7370108;19;19913;-73
2023/12/22 09:06:50;;;;;;;;;;;15.60;21.40;;;;;;7377098;19;27337;-73
2023/12/22 09:09:16;;;;;;;4.07;0.70;;;15.80;21.10;;;;;;7373084;19;20323;-72
2023/12/22 09:11:42;;;;;;;2.15;0.57;;;16.00;21.10;;;;;;7377175;19;19919;-74
2023/12/22 09:14:11;;;;;;;2.88;0.80;;;15.80;21.30;;;;;;7373978;19;20254;-71
2023/12/22 09:16:37;;;;;;;5.30;0.60;;;15.50;22.30;;;;;;7377982;19;20389;-71
2023/12/22 09:19:06;;;;;;;3.63;0.63;;;15.70;22.50;;;;;;7373306;19;19933;-71
2023/12/22 09:21:32;;;;;;;3.25;0.88;;;15.80;22.20;;;;;;7370800;19;19952;-72
2023/12/22 09:23:58;;;;;;;3.63;0.88;;;15.80;21.90;;;;;;7374911;19;19928;-73
2023/12/22 09:26:23;;;;;;;5.95;0.98;;;16.20;20.00;;;;;;7370786;19;19911;-71
2023/12/22 09:28:49;;;;;;;5.57;1.00;;;16.80;19.00;;;;;;7376574;19;19911;-71
2023/12/22 09:31:15;;;;;;;6.35;1.00;;;17.20;17.50;;;;;;7374428;19;19918;-73
2023/12/22 09:33:42;;;;;;;3.83;1.27;;;17.30;16.40;;;;;;7368945;19;19935;-73
2023/12/22 09:36:08;;;;;;;3.97;0.85;;;17.60;16.20;;;;;;7385298;19;19937;-72
2023/12/22 09:38:34;;;;;;;3.28;1.00;;;17.90;15.50;;;;;;7384484;19;20330;-72
2023/12/22 09:41:01;;;;;;;3.38;1.05;;;17.90;15.10;;;;;;7398364;19;19914;-73
2023/12/22 09:43:27;;;;;;;5.88;2.15;;;18.30;14.30;;;;;;7397608;19;19918;-72
2023/12/22 09:45:53;;;;;;;4.88;1.02;;;18.60;14.00;;;;;;7400235;19;19960;-71
2023/12/22 09:48:26;;;;;;;3.15;0.80;;;18.70;12.90;;;;;;7399325;19;20345;-71
2023/12/22 09:50:54;;;;;;;4.93;1.05;;;18.90;12.80;;;;;;7398875;19;19918;-72
2023/12/22 09:53:20;;;;;;;4.65;0.80;;;19.40;11.90;;;;;;7398966;19;19919;-72
2023/12/22 09:55:50;;;;;;;4.72;0.80;;;19.20;11.90;;;;;;7396896;19;19919;-72
2023/12/22 09:58:16;;;;;;;3.60;0.77;;;18.50;12.70;;;;;;7398459;19;19933;-71
2023/12/22 10:00:42;;;;;;;;;;;18.00;13.70;;;;;;7403700;19;19922;-71
2023/12/22 10:03:11;;;;;;;3.63;1.13;;;17.80;15.70;;;;;;7396821;19;20262;-72
2023/12/22 10:05:41;;;;;;;3.30;1.15;;;17.80;15.60;;;;;;7397932;19;19911;-71
2023/12/22 10:08:10;;;;;;;3.72;0.70;;;17.60;14.90;;;;;;7375490;19;20035;-72
2023/12/22 10:10:38;;;;;;;4.60;1.00;;;17.40;15.70;;;;;;7398375;19;19923;-71
2023/12/22 10:13:08;;;;;;;4.65;1.20;;;17.50;16.10;;;;;;7391262;19;19922;-73
2023/12/22 10:15:40;;;;;;;2.42;0.80;;;17.90;15.50;;;;;;7372344;19;19915;-72
2023/12/22 10:18:06;;;;;;;5.28;1.02;;;18.10;15.40;;;;;;7377293;19;19922;-73
2023/12/22 10:20:32;;;;;;;4.57;1.33;;;18.30;13.60;;;;;;7372277;19;19926;-73
2023/12/22 10:22:58;;;;;;;5.82;1.13;;;18.00;14.10;;;;;;7376686;19;19933;-72
2023/12/22 10:25:29;;;;;;;3.30;0.90;;;18.10;15.10;;;;;;7359657;19;19931;-71
2023/12/22 10:27:55;;;;;;;4.60;1.65;;;18.30;13.70;;;;;;7381712;19;19927;-74
2023/12/22 10:30:22;;;;;;;4.35;0.73;;;18.40;13.90;;;;;;7376155;19;20250;-72
2023/12/22 10:32:51;;;;;;;5.20;1.00;;;18.60;12.80;;;;;;7377056;19;19914;-71
2023/12/22 10:35:17;;;;;;;5.32;1.10;;;19.10;12.40;;;;;;7373311;19;19922;-72
2023/12/22 10:37:47;;;;;;;3.05;0.93;;;19.70;11.30;;;;;;7382324;19;19974;-81
2023/12/22 10:40:13;;;;;;;6.95;1.30;;;20.00;10.50;;;;;;7384200;19;20249;-71
2023/12/22 10:42:41;;;;;;;4.03;0.90;;;20.10;10.40;;;;;;7386559;19;20338;-73
2023/12/22 10:45:08;;;;;;;5.05;1.02;;;19.90;10.30;;;;;;7386606;19;19919;-73
2023/12/22 10:47:33;;;;;;;5.63;1.15;;;20.30;9.70;;;;;;7385128;19;20045;-73
2023/12/22 10:50:06;;;;;;;3.35;1.10;;;19.80;9.10;;;;;;7388590;19;20500;-75
2023/12/22 10:52:34;;;;;;;5.60;0.95;;;20.40;9.20;;;;;;7380536;19;20282;-74
2023/12/22 10:55:00;;;;;;;2.97;1.00;;;20.50;8.60;;;;;;7379404;19;19922;-74
2023/12/22 10:57:27;;;;;;;;;;;20.10;8.90;;;;;;7382008;19;19915;-74
2023/12/22 10:59:55;;;;;;;3.78;0.93;;;20.20;9.00;;;;;;7386566;19;20274;-73
2023/12/22 11:02:24;;;;;;;5.32;1.38;;;20.60;8.60;;;;;;7384846;19;19911;-74
2023/12/22 11:05:07;;;;;;;5.05;1.67;;;21.00;7.60;;;;;;7386167;19;19943;-74
2023/12/22 11:07:37;;;;;;;2.90;0.80;;;21.10;7.10;;;;;;7381480;19;19918;-74
2023/12/22 11:10:06;;;;;;;3.15;1.05;;;20.80;7.00;;;;;;7382476;19;19921;-74
2023/12/22 11:12:34;;;;;;;3.80;1.20;;;21.50;6.60;;;;;;7365570;19;19937;-74
2023/12/22 11:15:03;;;;;;;3.63;1.10;;;21.80;6.00;;;;;;7390971;19;20058;-74
2023/12/22 11:17:30;;;;;;;3.38;1.33;;;22.30;5.00;;;;;;7387776;19;20033;-75
2023/12/22 11:19:57;;;;;;;3.97;1.13;;;22.60;4.40;;;;;;7389304;19;20368;-75
2023/12/22 11:22:24;;;;;;;3.42;1.42;;;23.70;3.20;;;;;;7392094;19;19939;-75
2023/12/22 11:24:50;;;;;;;6.60;1.55;;;23.70;2.30;;;;;;7386343;19;19919;-74
2023/12/22 11:27:20;;;;;;;6.15;1.30;;;23.80;1.50;;;;;;7373359;19;19920;-74
2023/12/22 11:29:51;;;;;;;6.03;1.83;;;22.60;3.10;;;;;;7382682;19;19953;-74
2023/12/22 11:32:19;;;;;;;3.15;1.20;;;23.20;2.70;;;;;;7385058;19;20292;-74
2023/12/22 11:34:46;;;;;;;3.78;1.33;;;23.20;2.00;;;;;;7378056;19;19987;-73
2023/12/22 11:37:13;;;;;;;3.35;1.27;;;23.90;1.20;;;;;;7378638;19;19914;-73
2023/12/22 11:39:40;;;;;;;3.78;1.38;;;24.30;1.00;;;;;;7378642;19;19918;-73
2023/12/22 11:42:16;;;;;;;3.28;1.35;;;24.20;1.00;;;;;;7391005;19;19918;-73
2023/12/22 11:44:42;;;;;;;4.50;1.02;;;24.40;1.00;;;;;;7372847;19;19941;-72
2023/12/22 11:47:09;;;;;;;4.90;1.23;;;24.00;1.00;;;;;;7391234;19;19919;-72
2023/12/22 11:49:36;;;;;;;3.28;1.20;;;22.70;1.00;;;;;;7379600;19;21699;-72
2023/12/22 11:52:12;;;;;;;3.97;1.10;;;23.40;1.00;;;;;;7373329;19;19911;-73
2023/12/22 11:54:46;;;;;;;3.60;1.73;;;23.60;1.00;;;;;;7384655;19;20396;-73
2023/12/22 11:57:27;;;;;;;9.50;1.63;;;24.00;1.00;;;;;;7386692;19;19918;-74
2023/12/22 11:59:56;;;;;;;4.55;1.40;;;24.10;1.00;;;;;;7377407;19;20377;-73
2023/12/22 12:02:22;;;;;;;2.88;1.42;;;24.70;1.00;;;;;;7391530;19;20378;-74
2023/12/22 12:04:53;;;;;;;5.45;1.30;;;24.20;1.00;;;;;;7404294;19;19929;-73
2023/12/22 12:07:40;;;;;;;5.50;1.13;;;23.30;1.00;;;;;;7399570;19;19921;-73
2023/12/22 12:10:09;;;;;;;6.65;1.92;;;24.90;1.00;;;;;;7400580;19;19940;-73
2023/12/22 12:12:36;;;;;;;3.40;1.10;;;25.70;1.00;;;;;;7401348;19;19986;-72
2023/12/22 12:15:10;;;;;;;4.10;0.88;;;25.00;1.00;;;;;;7403553;19;19930;-75
2023/12/22 12:17:41;;;;;;;3.75;1.20;;;23.70;1.00;;;;;;7379409;19;19922;-73
2023/12/22 12:20:10;;;;;;;2.80;1.15;;;24.30;1.00;;;;;;7399293;19;19953;-73
2023/12/22 12:22:40;;;;;;;4.75;1.55;;;24.00;1.00;;;;;;7400842;19;20285;-74
2023/12/22 12:25:11;;;;;;;4.30;1.40;;;24.70;1.00;;;;;;7400534;19;19921;-73
2023/12/22 12:27:47;;;;;;;3.55;2.05;;;24.70;1.00;;;;;;7400290;19;20306;-73
2023/12/22 12:30:16;;;;;;;4.00;1.73;;;24.10;1.00;;;;;;7399135;19;19932;-74
2023/12/22 12:32:46;;;;;;;3.45;1.67;;;24.90;1.00;;;;;;7402862;19;19922;-73
2023/12/22 12:35:12;;;;;;;4.68;1.10;;;24.40;1.00;;;;;;7400136;19;19926;-73
2023/12/22 12:37:39;;;;;;;3.33;1.23;;;24.50;1.00;;;;;;7404151;19;20433;-73
2023/12/22 12:40:08;;;;;;;3.00;1.27;;;25.40;1.00;;;;;;7401803;19;20338;-73
2023/12/22 12:42:36;;;;;;;3.28;1.48;;;25.80;1.00;;;;;;7401209;19;20334;-73
2023/12/22 12:45:05;;;;;;;3.83;1.50;;;25.00;1.00;;;;;;7403460;19;19927;-72
2023/12/22 12:47:31;;;;;;;5.45;1.83;;;25.10;1.00;;;;;;7401154;19;19914;-73
2023/12/22 12:49:59;;;;;;;3.00;1.33;;;25.30;1.00;;;;;;7393619;19;19945;-73